sensor_id;sensor_type;location;lat;lon;timestamp;pressure;altitude;pressure_sealevel;temperature;humidity
45403;BME280;47427;51.976;5.326;2022-08-19T00:02:27;101292.06;;;17.74;94.05
45403;BME280;47427;51.976;5.326;2022-08-19T00:05:50;101283.19;;;17.66;94.20
45403;BME280;47427;51.976;5.326;2022-08-19T00:09:16;101295.56;;;17.64;94.81
45403;BME280;47427;51.976;5.326;2022-08-19T00:12:39;101300.84;;;17.61;95.24
45403;BME280;47427;51.976;5.326;2022-08-19T00:16:03;101300.84;;;17.58;95.14
45403;BME280;47427;51.976;5.326;2022-08-19T00:19:26;101299.06;;;17.55;95.46
45403;BME280;47427;51.976;5.326;2022-08-19T00:22:49;101303.47;;;17.50;95.72
45403;BME280;47427;51.976;5.326;2022-08-19T00:26:12;101296.38;;;17.46;95.45
45403;BME280;47427;51.976;5.326;2022-08-19T00:29:35;101290.16;;;17.44;95.88
45403;BME280;47427;51.976;5.326;2022-08-19T00:32:58;101289.25;;;17.40;95.90
45403;BME280;47427;51.976;5.326;2022-08-19T00:36:21;101298.94;;;17.37;95.85
45403;BME280;47427;51.976;5.326;2022-08-19T00:39:44;101287.47;;;17.35;96.47
45403;BME280;47427;51.976;5.326;2022-08-19T00:43:10;101289.22;;;17.32;96.49
45403;BME280;47427;51.976;5.326;2022-08-19T00:46:38;101290.09;;;17.30;96.20
45403;BME280;47427;51.976;5.326;2022-08-19T00:50:01;101294.50;;;17.28;96.15
45403;BME280;47427;51.976;5.326;2022-08-19T00:53:28;101290.97;;;17.24;96.25
45403;BME280;47427;51.976;5.326;2022-08-19T00:56:52;101290.91;;;17.21;96.68
45403;BME280;47427;51.976;5.326;2022-08-19T01:00:18;101297.03;;;17.14;97.28
45403;BME280;47427;51.976;5.326;2022-08-19T01:03:40;101307.66;;;17.13;97.24
45403;BME280;47427;51.976;5.326;2022-08-19T01:07:04;101299.69;;;17.09;97.19
45403;BME280;47427;51.976;5.326;2022-08-19T01:10:31;101290.84;;;17.07;97.45
45403;BME280;47427;51.976;5.326;2022-08-19T01:13:54;101293.47;;;17.06;97.38
45403;BME280;47427;51.976;5.326;2022-08-19T01:17:18;101295.25;;;17.05;97.68
45403;BME280;47427;51.976;5.326;2022-08-19T01:20:42;101289.94;;;17.02;97.60
45403;BME280;47427;51.976;5.326;2022-08-19T01:24:23;101292.56;;;16.99;97.74
45403;BME280;47427;51.976;5.326;2022-08-19T01:27:49;101291.63;;;16.96;97.85
45403;BME280;47427;51.976;5.326;2022-08-19T01:31:19;101300.47;;;16.92;97.64
45403;BME280;47427;51.976;5.326;2022-08-19T01:34:43;101311.00;;;16.88;97.72
45403;BME280;47427;51.976;5.326;2022-08-19T01:38:22;101303.91;;;16.83;97.94
45403;BME280;47427;51.976;5.326;2022-08-19T01:41:47;101295.97;;;16.84;98.10
45403;BME280;47427;51.976;5.326;2022-08-19T01:45:10;101301.28;;;16.86;98.14
45403;BME280;47427;51.976;5.326;2022-08-19T01:48:39;101293.31;;;16.83;98.34
45403;BME280;47427;51.976;5.326;2022-08-19T01:52:05;101293.28;;;16.80;98.05
45403;BME280;47427;51.976;5.326;2022-08-19T01:55:28;101301.19;;;16.77;98.34
45403;BME280;47427;51.976;5.326;2022-08-19T01:59:01;101297.59;;;16.73;98.41
45403;BME280;47427;51.976;5.326;2022-08-19T02:02:25;101294.97;;;16.75;98.26
45403;BME280;47427;51.976;5.326;2022-08-19T02:05:53;101291.44;;;16.73;98.58
45403;BME280;47427;51.976;5.326;2022-08-19T02:09:15;101301.13;;;16.71;98.33
45403;BME280;47427;51.976;5.326;2022-08-19T02:12:39;101306.44;;;16.69;98.39
45403;BME280;47427;51.976;5.326;2022-08-19T02:16:02;101298.44;;;16.66;98.21
45403;BME280;47427;51.976;5.326;2022-08-19T02:19:24;101300.19;;;16.62;98.14
45403;BME280;47427;51.976;5.326;2022-08-19T02:22:47;101309.06;;;16.69;98.76
45403;BME280;47427;51.976;5.326;2022-08-19T02:26:10;101301.91;;;16.60;98.57
45403;BME280;47427;51.976;5.326;2022-08-19T02:29:33;101306.31;;;16.58;99.02
45403;BME280;47427;51.976;5.326;2022-08-19T02:32:56;101306.28;;;16.52;98.83
45403;BME280;47427;51.976;5.326;2022-08-19T02:36:19;101315.03;;;16.45;98.70
45403;BME280;47427;51.976;5.326;2022-08-19T02:39:42;101316.78;;;16.41;98.86
45403;BME280;47427;51.976;5.326;2022-08-19T02:43:08;101317.63;;;16.39;99.04
45403;BME280;47427;51.976;5.326;2022-08-19T02:46:32;101306.19;;;16.41;98.80
45403;BME280;47427;51.976;5.326;2022-08-19T02:49:54;101307.00;;;16.37;98.94
45403;BME280;47427;51.976;5.326;2022-08-19T02:53:17;101312.31;;;16.36;99.03
45403;BME280;47427;51.976;5.326;2022-08-19T02:56:43;101314.03;;;16.35;99.40
45403;BME280;47427;51.976;5.326;2022-08-19T03:00:24;101316.69;;;16.34;99.59
45403;BME280;47427;51.976;5.326;2022-08-19T03:03:49;101317.56;;;16.31;99.47
45403;BME280;47427;51.976;5.326;2022-08-19T03:07:15;101313.09;;;16.30;99.49
45403;BME280;47427;51.976;5.326;2022-08-19T03:10:46;101306.94;;;16.30;100.00
45403;BME280;47427;51.976;5.326;2022-08-19T03:14:10;101289.25;;;16.27;100.00
45403;BME280;47427;51.976;5.326;2022-08-19T03:17:33;101303.34;;;16.24;100.00
45403;BME280;47427;51.976;5.326;2022-08-19T03:20:56;101302.50;;;16.25;100.00
45403;BME280;47427;51.976;5.326;2022-08-19T03:24:20;101298.94;;;16.23;100.00
45403;BME280;47427;51.976;5.326;2022-08-19T03:27:42;101290.09;;;16.21;100.00
45403;BME280;47427;51.976;5.326;2022-08-19T03:31:11;101294.47;;;16.19;100.00
45403;BME280;47427;51.976;5.326;2022-08-19T03:34:37;101303.31;;;16.18;100.00
45403;BME280;47427;51.976;5.326;2022-08-19T03:38:00;101301.50;;;16.17;100.00
45403;BME280;47427;51.976;5.326;2022-08-19T03:41:35;101308.53;;;16.15;100.00
45403;BME280;47427;51.976;5.326;2022-08-19T03:44:58;101301.44;;;16.13;100.00
45403;BME280;47427;51.976;5.326;2022-08-19T03:48:21;101306.84;;;16.19;100.00
45403;BME280;47427;51.976;5.326;2022-08-19T03:51:44;101300.59;;;16.15;100.00
45403;BME280;47427;51.976;5.326;2022-08-19T03:55:26;101305.00;;;16.13;100.00
45403;BME280;47427;51.976;5.326;2022-08-19T03:58:49;101306.75;;;16.11;100.00
45403;BME280;47427;51.976;5.326;2022-08-19T04:02:12;101304.06;;;16.10;100.00
45403;BME280;47427;51.976;5.326;2022-08-19T04:05:35;101295.28;;;16.11;100.00
45403;BME280;47427;51.976;5.326;2022-08-19T04:09:03;101292.59;;;16.09;100.00
45403;BME280;47427;51.976;5.326;2022-08-19T04:12:27;101286.44;;;16.10;100.00
45403;BME280;47427;51.976;5.326;2022-08-19T04:15:50;101285.56;;;16.08;100.00
45403;BME280;47427;51.976;5.326;2022-08-19T04:19:15;101283.72;;;16.04;100.00
45403;BME280;47427;51.976;5.326;2022-08-19T04:22:38;101295.22;;;16.06;100.00
45403;BME280;47427;51.976;5.326;2022-08-19T04:26:00;101290.78;;;16.05;100.00
45403;BME280;47427;51.976;5.326;2022-08-19T04:29:24;101290.75;;;16.02;100.00
45403;BME280;47427;51.976;5.326;2022-08-19T04:32:49;101288.13;;;16.03;100.00
45403;BME280;47427;51.976;5.326;2022-08-19T04:36:23;101290.75;;;16.02;100.00
45403;BME280;47427;51.976;5.326;2022-08-19T04:39:47;101290.78;;;16.03;100.00
45403;BME280;47427;51.976;5.326;2022-08-19T04:43:29;101282.84;;;16.05;100.00
45403;BME280;47427;51.976;5.326;2022-08-19T04:46:52;101285.53;;;16.10;100.00
45403;BME280;47427;51.976;5.326;2022-08-19T04:50:15;101268.81;;;16.11;100.00
45403;BME280;47427;51.976;5.326;2022-08-19T04:53:42;101287.41;;;16.20;100.00
45403;BME280;47427;51.976;5.326;2022-08-19T04:57:07;101289.19;;;16.19;100.00
45403;BME280;47427;51.976;5.326;2022-08-19T05:00:31;101290.09;;;16.21;100.00
45403;BME280;47427;51.976;5.326;2022-08-19T05:03:55;101306.88;;;16.23;100.00
45403;BME280;47427;51.976;5.326;2022-08-19T05:07:18;101321.91;;;16.26;100.00
45403;BME280;47427;51.976;5.326;2022-08-19T05:10:41;101323.75;;;16.33;100.00
45403;BME280;47427;51.976;5.326;2022-08-19T05:14:05;101319.41;;;16.41;100.00
45403;BME280;47427;51.976;5.326;2022-08-19T05:17:28;101309.81;;;16.53;100.00
45403;BME280;47427;51.976;5.326;2022-08-19T05:20:50;101304.59;;;16.62;100.00
45403;BME280;47427;51.976;5.326;2022-08-19T05:24:32;101311.72;;;16.71;100.00
45403;BME280;47427;51.976;5.326;2022-08-19T05:27:58;101320.75;;;16.86;100.00
45403;BME280;47427;51.976;5.326;2022-08-19T05:31:21;101325.31;;;17.07;100.00
45403;BME280;47427;51.976;5.326;2022-08-19T05:34:44;101327.25;;;17.36;100.00
45403;BME280;47427;51.976;5.326;2022-08-19T05:38:08;101323.81;;;17.54;100.00
45403;BME280;47427;51.976;5.326;2022-08-19T05:41:30;101330.97;;;17.66;100.00
45403;BME280;47427;51.976;5.326;2022-08-19T05:45:12;101339.00;;;17.80;100.00
45403;BME280;47427;51.976;5.326;2022-08-19T05:48:35;101334.53;;;17.77;100.00
45403;BME280;47427;51.976;5.326;2022-08-19T05:51:58;101327.41;;;17.64;100.00
45403;BME280;47427;51.976;5.326;2022-08-19T05:55:23;101320.38;;;17.67;100.00
45403;BME280;47427;51.976;5.326;2022-08-19T05:58:46;101320.41;;;17.75;100.00
45403;BME280;47427;51.976;5.326;2022-08-19T06:02:11;101314.16;;;17.68;100.00
45403;BME280;47427;51.976;5.326;2022-08-19T06:05:35;101326.63;;;17.82;100.00
45403;BME280;47427;51.976;5.326;2022-08-19T06:08:58;101324.06;;;18.03;100.00
45403;BME280;47427;51.976;5.326;2022-08-19T06:12:21;101314.41;;;18.42;98.74
45403;BME280;47427;51.976;5.326;2022-08-19T06:15:47;101317.09;;;18.62;96.95
45403;BME280;47427;51.976;5.326;2022-08-19T06:19:14;101325.97;;;18.89;96.13
45403;BME280;47427;51.976;5.326;2022-08-19T06:22:43;101327.75;;;19.05;94.98
45403;BME280;47427;51.976;5.326;2022-08-19T06:26:07;101331.28;;;19.05;94.12
45403;BME280;47427;51.976;5.326;2022-08-19T06:29:34;101325.97;;;19.19;93.90
45403;BME280;47427;51.976;5.326;2022-08-19T06:32:57;101326.81;;;19.23;94.33
45403;BME280;47427;51.976;5.326;2022-08-19T06:36:27;101326.81;;;19.32;93.60
45403;BME280;47427;51.976;5.326;2022-08-19T06:39:52;101331.13;;;19.79;92.97
45403;BME280;47427;51.976;5.326;2022-08-19T06:43:15;101336.41;;;19.88;91.47
45403;BME280;47427;51.976;5.326;2022-08-19T06:46:40;101335.41;;;20.14;90.33
45403;BME280;47427;51.976;5.326;2022-08-19T06:50:04;101329.09;;;20.29;88.84
45403;BME280;47427;51.976;5.326;2022-08-19T06:53:48;101327.19;;;20.51;88.76
45403;BME280;47427;51.976;5.326;2022-08-19T06:57:11;101333.25;;;20.74;86.59
45403;BME280;47427;51.976;5.326;2022-08-19T07:00:37;101337.56;;;20.86;86.29
45403;BME280;47427;51.976;5.326;2022-08-19T07:04:00;101340.09;;;21.03;86.38
45403;BME280;47427;51.976;5.326;2022-08-19T07:07:24;101336.34;;;21.26;84.98
45403;BME280;47427;51.976;5.326;2022-08-19T07:10:47;101335.06;;;21.62;83.45
45403;BME280;47427;51.976;5.326;2022-08-19T07:14:11;101340.50;;;21.56;81.88
45403;BME280;47427;51.976;5.326;2022-08-19T07:17:34;101348.91;;;21.95;81.51
45403;BME280;47427;51.976;5.326;2022-08-19T07:21:12;101337.88;;;22.22;80.68
45403;BME280;47427;51.976;5.326;2022-08-19T07:24:37;101340.38;;;22.36;78.02
45403;BME280;47427;51.976;5.326;2022-08-19T07:28:00;101336.28;;;22.09;79.40
45403;BME280;47427;51.976;5.326;2022-08-19T07:31:25;101337.84;;;22.84;78.29
45403;BME280;47427;51.976;5.326;2022-08-19T07:34:48;101342.78;;;22.53;78.00
45403;BME280;47427;51.976;5.326;2022-08-19T07:38:11;101340.31;;;21.71;79.10
45403;BME280;47427;51.976;5.326;2022-08-19T07:41:54;101348.38;;;21.67;80.21
45403;BME280;47427;51.976;5.326;2022-08-19T07:45:17;101343.88;;;21.72;80.35
45403;BME280;47427;51.976;5.326;2022-08-19T07:48:42;101357.31;;;21.64;79.58
45403;BME280;47427;51.976;5.326;2022-08-19T07:52:08;101348.53;;;22.27;78.16
45403;BME280;47427;51.976;5.326;2022-08-19T07:55:32;101346.00;;;22.77;77.32
45403;BME280;47427;51.976;5.326;2022-08-19T07:58:54;101358.31;;;22.85;76.86
45403;BME280;47427;51.976;5.326;2022-08-19T08:02:35;101362.38;;;21.89;77.45
45403;BME280;47427;51.976;5.326;2022-08-19T08:05:58;101359.56;;;24.88;68.33
45403;BME280;47427;51.976;5.326;2022-08-19T08:09:41;101363.94;;;28.76;57.42
45403;BME280;47427;51.976;5.326;2022-08-19T08:13:04;101359.19;;;30.79;49.47
45403;BME280;47427;51.976;5.326;2022-08-19T08:16:26;101364.59;;;29.03;53.35
45403;BME280;47427;51.976;5.326;2022-08-19T08:19:53;101369.13;;;26.86;57.41
45403;BME280;47427;51.976;5.326;2022-08-19T08:23:16;101374.41;;;26.03;59.72
45403;BME280;47427;51.976;5.326;2022-08-19T08:26:43;101376.53;;;25.26;60.60
45403;BME280;47427;51.976;5.326;2022-08-19T08:30:14;101382.97;;;24.04;65.60
45403;BME280;47427;51.976;5.326;2022-08-19T08:33:37;101390.38;;;23.91;66.25
45403;BME280;47427;51.976;5.326;2022-08-19T08:36:58;101386.97;;;23.83;67.46
45403;BME280;47427;51.976;5.326;2022-08-19T08:44:05;101399.72;;;23.67;69.49
45403;BME280;47427;51.976;5.326;2022-08-19T08:47:34;101401.34;;;24.20;67.92
45403;BME280;47427;51.976;5.326;2022-08-19T08:50:58;101398.34;;;25.12;65.07
45403;BME280;47427;51.976;5.326;2022-08-19T08:54:24;101384.72;;;28.95;52.31
45403;BME280;47427;51.976;5.326;2022-08-19T09:01:16;101394.69;;;25.82;58.28
45403;BME280;47427;51.976;5.326;2022-08-19T09:04:39;101400.16;;;30.35;48.20
45403;BME280;47427;51.976;5.326;2022-08-19T09:08:08;101399.22;;;32.13;46.38
45403;BME280;47427;51.976;5.326;2022-08-19T09:12:11;101392.03;;;29.36;48.87
45403;BME280;47427;51.976;5.326;2022-08-19T09:15:45;101393.22;;;29.49;49.02
45403;BME280;47427;51.976;5.326;2022-08-19T09:19:09;101385.84;;;28.90;49.39
45403;BME280;47427;51.976;5.326;2022-08-19T09:22:51;101396.41;;;27.55;51.64
45403;BME280;47427;51.976;5.326;2022-08-19T09:26:16;101381.16;;;26.75;54.02
45403;BME280;47427;51.976;5.326;2022-08-19T09:29:38;101391.31;;;31.58;45.45
45403;BME280;47427;51.976;5.326;2022-08-19T09:33:20;101388.31;;;33.09;40.89
45403;BME280;47427;51.976;5.326;2022-08-19T09:36:42;101387.38;;;31.81;42.32
45403;BME280;47427;51.976;5.326;2022-08-19T09:40:06;101395.47;;;28.75;49.42
45403;BME280;47427;51.976;5.326;2022-08-19T09:43:29;101408.31;;;26.38;55.77
45403;BME280;47427;51.976;5.326;2022-08-19T09:46:52;101402.72;;;25.18;59.55
45403;BME280;47427;51.976;5.326;2022-08-19T09:50:15;101400.28;;;24.70;61.99
45403;BME280;47427;51.976;5.326;2022-08-19T09:53:37;101398.13;;;24.47;62.90
45403;BME280;47427;51.976;5.326;2022-08-19T09:57:01;101401.38;;;24.61;63.20
45403;BME280;47427;51.976;5.326;2022-08-19T10:00:24;101407.03;;;25.23;61.94
45403;BME280;47427;51.976;5.326;2022-08-19T10:03:49;101407.81;;;25.61;60.72
45403;BME280;47427;51.976;5.326;2022-08-19T10:07:13;101400.69;;;26.23;59.00
45403;BME280;47427;51.976;5.326;2022-08-19T10:10:36;101408.59;;;30.29;51.05
45403;BME280;47427;51.976;5.326;2022-08-19T10:13:59;101411.88;;;31.62;45.32
45403;BME280;47427;51.976;5.326;2022-08-19T10:17:22;101405.03;;;33.63;40.44
45403;BME280;47427;51.976;5.326;2022-08-19T10:20:48;101401.53;;;34.74;38.25
45403;BME280;47427;51.976;5.326;2022-08-19T10:24:09;101393.06;;;32.26;42.75
45403;BME280;47427;51.976;5.326;2022-08-19T10:27:32;101396.44;;;32.47;41.16
45403;BME280;47427;51.976;5.326;2022-08-19T10:30:54;101400.75;;;35.26;36.86
45403;BME280;47427;51.976;5.326;2022-08-19T10:34:16;101402.16;;;35.85;35.47
45403;BME280;47427;51.976;5.326;2022-08-19T10:37:39;101388.19;;;35.11;36.12
45403;BME280;47427;51.976;5.326;2022-08-19T10:41:13;101392.72;;;36.88;33.41
45403;BME280;47427;51.976;5.326;2022-08-19T10:44:36;101403.53;;;37.49;32.69
45403;BME280;47427;51.976;5.326;2022-08-19T10:47:58;101394.31;;;37.97;32.42
45403;BME280;47427;51.976;5.326;2022-08-19T10:51:20;101380.41;;;36.58;34.08
45403;BME280;47427;51.976;5.326;2022-08-19T10:55:04;101383.47;;;37.37;33.47
45403;BME280;47427;51.976;5.326;2022-08-19T10:58:45;101381.63;;;36.78;34.45
45403;BME280;47427;51.976;5.326;2022-08-19T11:02:26;101366.94;;;37.50;32.89
45403;BME280;47427;51.976;5.326;2022-08-19T11:06:07;101371.91;;;37.34;33.20
45403;BME280;47427;51.976;5.326;2022-08-19T11:09:31;101381.97;;;40.36;27.53
45403;BME280;47427;51.976;5.326;2022-08-19T11:12:57;101379.50;;;39.93;28.02
45403;BME280;47427;51.976;5.326;2022-08-19T11:16:23;101367.75;;;39.18;29.51
45403;BME280;47427;51.976;5.326;2022-08-19T11:19:47;101377.72;;;39.82;28.14
45403;BME280;47427;51.976;5.326;2022-08-19T11:23:09;101373.53;;;40.88;27.33
45403;BME280;47427;51.976;5.326;2022-08-19T11:26:35;101368.75;;;41.29;27.08
45403;BME280;47427;51.976;5.326;2022-08-19T11:29:59;101361.94;;;41.33;25.77
45403;BME280;47427;51.976;5.326;2022-08-19T11:33:21;101354.69;;;39.10;29.05
45403;BME280;47427;51.976;5.326;2022-08-19T11:36:45;101345.94;;;41.66;26.79
45403;BME280;47427;51.976;5.326;2022-08-19T11:40:09;101338.69;;;41.92;25.12
45403;BME280;47427;51.976;5.326;2022-08-19T11:43:33;101346.13;;;41.35;27.43
45403;BME280;47427;51.976;5.326;2022-08-19T11:46:56;101351.59;;;42.02;25.96
45403;BME280;47427;51.976;5.326;2022-08-19T11:50:19;101334.31;;;38.59;29.62
45403;BME280;47427;51.976;5.326;2022-08-19T11:54:06;101345.66;;;35.85;33.43
45403;BME280;47427;51.976;5.326;2022-08-19T11:57:53;101345.97;;;39.26;28.16
45403;BME280;47427;51.976;5.326;2022-08-19T12:01:40;101338.22;;;39.52;29.16
45403;BME280;47427;51.976;5.326;2022-08-19T12:05:28;101338.84;;;38.49;29.94
45403;BME280;47427;51.976;5.326;2022-08-19T12:09:16;101337.53;;;39.91;29.06
45403;BME280;47427;51.976;5.326;2022-08-19T12:13:03;101337.69;;;36.69;32.98
45403;BME280;47427;51.976;5.326;2022-08-19T12:16:50;101327.03;;;34.61;35.20
45403;BME280;47427;51.976;5.326;2022-08-19T12:20:39;101341.75;;;32.21;40.49
45403;BME280;47427;51.976;5.326;2022-08-19T12:24:29;101341.25;;;31.48;41.77
45403;BME280;47427;51.976;5.326;2022-08-19T12:28:20;101330.72;;;30.34;44.81
45403;BME280;47427;51.976;5.326;2022-08-19T12:32:07;101329.75;;;30.35;45.25
45403;BME280;47427;51.976;5.326;2022-08-19T12:35:54;101320.41;;;29.86;46.10
45403;BME280;47427;51.976;5.326;2022-08-19T12:39:42;101324.34;;;29.78;47.50
45403;BME280;47427;51.976;5.326;2022-08-19T12:43:29;101323.81;;;29.09;49.29
45403;BME280;47427;51.976;5.326;2022-08-19T12:47:16;101319.78;;;29.19;49.23
45403;BME280;47427;51.976;5.326;2022-08-19T12:51:09;101326.44;;;28.68;50.23
45403;BME280;47427;51.976;5.326;2022-08-19T12:54:57;101325.50;;;29.52;47.80
45403;BME280;47427;51.976;5.326;2022-08-19T12:58:44;101313.47;;;31.25;44.79
45403;BME280;47427;51.976;5.326;2022-08-19T13:02:31;101311.22;;;32.64;42.05
45403;BME280;47427;51.976;5.326;2022-08-19T13:06:18;101321.25;;;30.05;46.61
45403;BME280;47427;51.976;5.326;2022-08-19T13:10:07;101307.03;;;28.80;50.08
45403;BME280;47427;51.976;5.326;2022-08-19T13:13:55;101321.53;;;28.78;51.10
45403;BME280;47427;51.976;5.326;2022-08-19T13:17:41;101314.75;;;28.23;52.29
45403;BME280;47427;51.976;5.326;2022-08-19T13:21:05;101309.78;;;28.35;51.70
45403;BME280;47427;51.976;5.326;2022-08-19T13:24:28;101322.28;;;28.37;52.76
45403;BME280;47427;51.976;5.326;2022-08-19T13:27:51;101295.59;;;28.29;52.68
45403;BME280;47427;51.976;5.326;2022-08-19T13:31:16;101301.69;;;27.89;53.06
45403;BME280;47427;51.976;5.326;2022-08-19T13:34:57;101322.97;;;27.73;54.40
45403;BME280;47427;51.976;5.326;2022-08-19T13:38:21;101320.09;;;26.20;59.88
45403;BME280;47427;51.976;5.326;2022-08-19T13:41:45;101347.25;;;24.40;71.02
45403;BME280;47427;51.976;5.326;2022-08-19T13:45:12;101349.97;;;22.51;89.79
45403;BME280;47427;51.976;5.326;2022-08-19T13:48:53;101366.06;;;21.77;98.43
45403;BME280;47427;51.976;5.326;2022-08-19T13:52:16;101347.75;;;21.41;100.00
45403;BME280;47427;51.976;5.326;2022-08-19T13:55:41;101340.31;;;21.71;100.00
45403;BME280;47427;51.976;5.326;2022-08-19T13:59:03;101347.16;;;21.92;100.00
45403;BME280;47427;51.976;5.326;2022-08-19T14:02:26;101357.06;;;21.85;100.00
45403;BME280;47427;51.976;5.326;2022-08-19T14:05:49;101359.50;;;21.22;100.00
45403;BME280;47427;51.976;5.326;2022-08-19T14:09:10;101357.66;;;21.29;100.00
45403;BME280;47427;51.976;5.326;2022-08-19T14:12:34;101356.56;;;21.53;100.00
45403;BME280;47427;51.976;5.326;2022-08-19T14:15:55;101360.94;;;21.60;100.00
45403;BME280;47427;51.976;5.326;2022-08-19T14:19:18;101361.16;;;21.40;100.00
45403;BME280;47427;51.976;5.326;2022-08-19T14:22:43;101355.25;;;21.04;100.00
45403;BME280;47427;51.976;5.326;2022-08-19T14:26:11;101349.97;;;20.95;100.00
45403;BME280;47427;51.976;5.326;2022-08-19T14:29:34;101357.09;;;20.94;100.00
45403;BME280;47427;51.976;5.326;2022-08-19T14:32:58;101347.28;;;20.99;100.00
45403;BME280;47427;51.976;5.326;2022-08-19T14:36:21;101342.63;;;21.20;100.00
45403;BME280;47427;51.976;5.326;2022-08-19T14:39:45;101345.84;;;21.54;100.00
45403;BME280;47427;51.976;5.326;2022-08-19T14:43:07;101326.75;;;21.88;100.00
45403;BME280;47427;51.976;5.326;2022-08-19T14:46:28;101330.81;;;22.17;100.00
45403;BME280;47427;51.976;5.326;2022-08-19T14:49:51;101328.59;;;22.49;100.00
45403;BME280;47427;51.976;5.326;2022-08-19T14:53:13;101318.75;;;22.52;100.00
45403;BME280;47427;51.976;5.326;2022-08-19T14:56:35;101324.88;;;22.58;100.00
45403;BME280;47427;51.976;5.326;2022-08-19T14:59:58;101326.41;;;22.73;100.00
45403;BME280;47427;51.976;5.326;2022-08-19T15:03:21;101325.13;;;22.99;100.00
45403;BME280;47427;51.976;5.326;2022-08-19T15:06:44;101322.78;;;23.30;100.00
45403;BME280;47427;51.976;5.326;2022-08-19T15:10:06;101323.38;;;23.91;100.00
45403;BME280;47427;51.976;5.326;2022-08-19T15:13:30;101336.75;;;25.71;100.00
45403;BME280;47427;51.976;5.326;2022-08-19T15:16:53;101324.16;;;29.22;87.25
45403;BME280;47427;51.976;5.326;2022-08-19T15:20:19;101320.47;;;32.29;71.37
45403;BME280;47427;51.976;5.326;2022-08-19T15:23:42;101322.22;;;32.62;64.22
45403;BME280;47427;51.976;5.326;2022-08-19T15:27:04;101322.63;;;33.31;61.89
45403;BME280;47427;51.976;5.326;2022-08-19T15:30:27;101317.31;;;31.04;70.08
45403;BME280;47427;51.976;5.326;2022-08-19T15:33:50;101325.50;;;29.11;70.67
45403;BME280;47427;51.976;5.326;2022-08-19T15:37:12;101327.84;;;27.87;78.38
45403;BME280;47427;51.976;5.326;2022-08-19T15:40:35;101335.13;;;26.83;79.37
45403;BME280;47427;51.976;5.326;2022-08-19T15:44:19;101326.53;;;25.86;82.66
45403;BME280;47427;51.976;5.326;2022-08-19T15:47:43;101341.06;;;25.46;87.98
45403;BME280;47427;51.976;5.326;2022-08-19T15:51:06;101328.31;;;25.21;87.95
45403;BME280;47427;51.976;5.326;2022-08-19T15:54:27;101325.75;;;25.17;87.42
45403;BME280;47427;51.976;5.326;2022-08-19T15:57:51;101345.25;;;25.25;88.47
45403;BME280;47427;51.976;5.326;2022-08-19T16:01:33;101343.72;;;25.13;90.94
45403;BME280;47427;51.976;5.326;2022-08-19T16:04:54;101330.56;;;25.02;91.03
45403;BME280;47427;51.976;5.326;2022-08-19T16:08:34;101331.88;;;24.86;90.06
45403;BME280;47427;51.976;5.326;2022-08-19T16:12:03;101332.94;;;24.41;88.11
45403;BME280;47427;51.976;5.326;2022-08-19T16:15:28;101330.19;;;24.46;89.05
45403;BME280;47427;51.976;5.326;2022-08-19T16:18:52;101333.00;;;23.99;90.62
45403;BME280;47427;51.976;5.326;2022-08-19T16:22:15;101329.19;;;24.10;90.52
45403;BME280;47427;51.976;5.326;2022-08-19T16:25:37;101342.06;;;24.33;90.71
45403;BME280;47427;51.976;5.326;2022-08-19T16:29:02;101341.19;;;24.32;88.54
45403;BME280;47427;51.976;5.326;2022-08-19T16:32:24;101349.66;;;24.14;89.95
45403;BME280;47427;51.976;5.326;2022-08-19T16:35:47;101335.38;;;24.54;90.28
45403;BME280;47427;51.976;5.326;2022-08-19T16:39:12;101345.47;;;24.80;89.65
45403;BME280;47427;51.976;5.326;2022-08-19T16:42:34;101339.28;;;24.76;89.04
45403;BME280;47427;51.976;5.326;2022-08-19T16:45:58;101346.69;;;24.67;87.49
45403;BME280;47427;51.976;5.326;2022-08-19T16:49:20;101351.66;;;24.44;88.11
45403;BME280;47427;51.976;5.326;2022-08-19T16:52:43;101343.88;;;24.34;88.28
45403;BME280;47427;51.976;5.326;2022-08-19T16:56:09;101347.28;;;24.79;85.93
45403;BME280;47427;51.976;5.326;2022-08-19T16:59:33;101333.56;;;24.90;84.69
45403;BME280;47427;51.976;5.326;2022-08-19T17:02:56;101341.41;;;24.99;85.93
45403;BME280;47427;51.976;5.326;2022-08-19T17:06:23;101331.75;;;24.92;84.20
45403;BME280;47427;51.976;5.326;2022-08-19T17:09:46;101336.91;;;25.00;84.31
45403;BME280;47427;51.976;5.326;2022-08-19T17:13:09;101336.00;;;24.65;81.12
45403;BME280;47427;51.976;5.326;2022-08-19T17:16:34;101341.13;;;24.35;83.42
45403;BME280;47427;51.976;5.326;2022-08-19T17:19:59;101344.25;;;24.15;84.58
45403;BME280;47427;51.976;5.326;2022-08-19T17:23:23;101345.91;;;23.81;87.57
45403;BME280;47427;51.976;5.326;2022-08-19T17:26:45;101354.97;;;23.72;87.69
45403;BME280;47427;51.976;5.326;2022-08-19T17:30:09;101352.53;;;23.59;86.50
45403;BME280;47427;51.976;5.326;2022-08-19T17:33:33;101341.56;;;23.27;87.14
45403;BME280;47427;51.976;5.326;2022-08-19T17:36:54;101342.75;;;23.12;87.44
45403;BME280;47427;51.976;5.326;2022-08-19T17:40:19;101341.41;;;22.85;89.22
45403;BME280;47427;51.976;5.326;2022-08-19T17:43:42;101347.31;;;22.49;90.58
45403;BME280;47427;51.976;5.326;2022-08-19T17:47:03;101350.28;;;22.29;92.33
45403;BME280;47427;51.976;5.326;2022-08-19T17:50:27;101338.88;;;22.12;93.02
45403;BME280;47427;51.976;5.326;2022-08-19T17:53:50;101354.06;;;22.12;94.13
45403;BME280;47427;51.976;5.326;2022-08-19T17:57:14;101355.03;;;22.06;95.07
45403;BME280;47427;51.976;5.326;2022-08-19T18:00:36;101346.28;;;21.93;94.81
45403;BME280;47427;51.976;5.326;2022-08-19T18:03:58;101357.84;;;21.92;95.31
45403;BME280;47427;51.976;5.326;2022-08-19T18:07:21;101361.34;;;21.97;95.81